Latest Coastal Weather Observations for Rhyll

IDV60701

Issued at 4:41 pm EDT Tuesday 6 December 2016 (issued every 10 minutes, with the page automatically refreshed every 10 minutes)

About coastal observations | Map of coastal stations | Coastal observations for VIC | Marine services | Other Formats
Station Details ID: 086373 Name: RHYLL Lat: -38.46 Lon: 145.31 Height: 13.4 m
Data from the previous 72 hours. | See also: Recent months at Rhyll
Date/Time
EDT
Temp
°C
Wind Pressure Rain since
9am
mm
Weather Cloud Vis
km
Sea
Height
m
Swell
Dir  Spd
kts
Gust
kts
hPa Trend Height
m
Period
s
Dir
06/04:30pm 18.4 SSW 8 12 1014.0 - 0.0 - - - - - - -
06/04:00pm 18.1 SSW 8 14 1014.0 - 0.0 - - - - - - -
06/03:30pm 18.4 SSW 9 16 1014.1 - 0.0 - - - - - - -
06/03:00pm 18.5 S 9 15 1014.1 - 0.0 - - - - - - -
06/02:30pm 18.1 SSW 8 15 1014.1 - 0.0 - - - - - - -
06/02:00pm 17.9 SW 9 15 1014.1 - 0.0 - - - - - - -
06/01:30pm 18.1 SSW 8 13 1014.1 - 0.0 - - - - - - -
06/01:00pm 17.4 SW 7 11 1014.2 - 0.0 - - - - - - -
06/12:30pm 16.2 SSW 7 13 1014.2 - 0.0 - - - - - - -
06/12:00pm 16.6 SSW 5 8 1014.4 - 0.0 - - - - - - -
06/11:30am 16.8 SSE 3 5 1014.2 - 0.0 - - - - - - -
06/11:00am 17.5 SE 3 4 1014.0 - 0.0 - - - - - - -
06/10:30am 16.7 SE 2 5 1014.1 - 0.0 - - - - - - -
06/10:00am 14.6 SSW 5 8 1014.4 - 0.0 - - - - - - -
06/09:30am 14.6 SSW 4 7 1014.6 - 0.0 - - - - - - -
06/09:00am 14.2 W 2 3 1014.3 - 0.0 - - - - - - -
06/08:30am 13.9 W 2 3 1014.0 - 0.0 - - - - - - -
06/08:00am 13.9 WSW 3 4 1014.1 - 0.0 - - - - - - -
06/07:30am 13.9 SW 3 5 1013.6 - 0.0 - - - - - - -
06/07:00am 14.1 WSW 1 2 1013.8 - 0.0 - - - - - - -
06/06:30am 14.0 S 2 3 1013.5 - 0.0 - - - - - - -
06/06:00am 13.9 S 2 4 1013.1 - 0.0 - - - - - - -
06/05:30am 13.9 SE 2 4 1012.7 - 0.0 - - - - - - -
06/05:00am 13.9 SSE 3 5 1012.2 - 0.0 - - - - - - -
06/04:30am 14.1 SE 4 7 1011.4 - 0.0 - - - - - - -
06/04:00am 13.9 ESE 7 10 1011.4 - 0.0 - - - - - - -
06/03:30am 13.9 SSE 5 7 1011.5 - 0.0 - - - - - - -
06/03:00am 13.9 SSE 4 6 1012.3 - 0.0 - - - - - - -
06/02:30am 13.5 SSE 4 7 1012.7 - 0.0 - - - - - - -
06/02:00am 13.8 SSE 3 6 1013.1 - 0.0 - - - - - - -
06/01:30am 14.2 SSE 5 7 1013.0 - 0.0 - - - - - - -
06/01:00am 14.3 SE 5 7 1013.3 - 0.0 - - - - - - -
06/12:30am 13.7 SSE 3 5 1013.3 - 0.0 - - - - - - -
06/12:00am 13.5 SW 2 3 1013.7 - 0.0 - - - - - - -
 
Date/Time
EDT
Temp
°C
Wind Pressure Rain since
9am
mm
Weather Cloud Vis
km
Sea
Height
m
Swell
Dir  Spd
kts
Gust
kts
hPa Trend Height
m
Period
s
Dir
05/11:30pm 13.8 WSW 3 4 1014.7 - 0.0 - - - - - - -
05/11:00pm 14.2 SW 4 6 1014.1 - 0.0 - - - - - - -
05/10:30pm 14.5 SSW 5 8 1014.9 - 0.0 - - - - - - -
05/10:00pm 14.6 SW 4 10 1015.7 - 0.0 - - - - - - -
05/09:30pm 14.6 SSW 5 11 1014.7 - 0.0 - - - - - - -
05/09:00pm 14.8 SSW 7 13 1014.6 - 0.0 - - - - - - -
05/08:30pm 14.8 SSW 7 10 1013.9 - 0.0 - - - - - - -
05/08:00pm 14.8 SSW 6 10 1014.0 - 0.0 - - - - - - -
05/07:30pm 15.1 SSW 7 11 1014.0 - 0.0 - - - - - - -
05/07:00pm 15.3 S 8 13 1013.8 - 0.0 - - - - - - -
05/06:30pm 15.7 SSW 7 12 1013.3 - 0.0 - - - - - - -
05/06:00pm 15.8 SSW 9 14 1012.9 - 0.0 - - - - - - -
05/05:30pm 17.1 S 8 13 1012.9 - 0.0 - - - - - - -
05/05:00pm 16.9 SSW 8 15 1013.3 - 0.0 - - - - - - -
05/04:30pm 17.8 SSW 7 12 1013.1 - 0.0 - - - - - - -
05/04:00pm 17.6 SSW 7 13 1013.1 - 0.0 - - - - - - -
05/03:30pm 19.6 S 7 14 1012.3 - 0.0 - - - - - - -
05/03:00pm 18.9 S 6 12 1012.3 - 0.0 - - - - - - -
05/02:30pm 18.0 SSW 11 16 1012.6 - 0.0 - - - - - - -
05/02:00pm 19.1 SSW 8 15 1012.7 - 0.0 - - - - - - -
05/01:30pm 18.8 SW 12 19 1012.4 - 0.0 - - - - - - -
05/01:00pm 18.3 SW 12 20 1012.5 - 0.0 - - - - - - -
05/12:30pm 18.4 SW 11 21 1012.5 - 0.0 - - - - - - -
05/12:00pm 18.3 SW 10 18 1012.6 - 0.0 - - - - - - -
05/11:30am 17.0 WSW 10 17 1012.6 - 0.0 - - - - - - -
05/11:00am 16.8 SW 11 17 1012.3 - 0.0 - - - - - - -
05/10:30am 16.4 WSW 8 15 1012.1 - 0.0 - - - - - - -
05/10:00am 16.4 WSW 8 14 1011.9 - 0.0 - - - - - - -
05/09:30am 16.2 SW 9 15 1011.9 - 0.0 - - - - - - -
05/09:00am 16.0 SW 8 17 1011.4 - 0.0 - - - - - - -
05/08:30am 15.7 SW 11 20 1010.7 - 0.0 - - - - - - -
05/08:00am 15.8 SW 12 19 1009.9 - 0.0 - - - - - - -
05/07:30am 15.8 SW 11 18 1009.4 - 0.0 - - - - - - -
05/07:00am 15.8 SW 10 19 1009.0 - 0.0 - - - - - - -
05/06:30am 15.8 WSW 9 17 1008.0 - 0.0 - - - - - - -
05/06:00am 16.6 SW 9 15 1007.3 - 0.0 - - - - - - -
05/05:30am 16.7 SW 10 21 1006.8 - 0.0 - - - - - - -
05/05:00am 17.1 SW 13 23 1006.0 - 0.0 - - - - - - -
05/04:48am 17.3 SW 15 25 1005.8 - 0.0 - - - - - - -
05/04:30am 19.7 W 8 24 1005.0 - 0.0 - - - - - - -
05/04:00am 21.3 NNW 9 15 1003.6 - 0.0 - - - - - - -
05/03:30am 21.1 NNW 12 16 1003.1 - 0.0 - - - - - - -
05/03:00am 21.1 NNW 13 18 1002.9 - 0.0 - - - - - - -
05/02:30am 21.3 NNW 15 21 1002.7 - 0.0 - - - - - - -
05/02:00am 21.6 NW 8 15 1003.0 - 0.0 - - - - - - -
05/01:30am 21.2 NNW 13 18 1002.8 - 0.0 - - - - - - -
05/01:00am 21.2 NNW 15 19 1003.1 - 0.0 - - - - - - -
05/12:54am 20.9 N 11 17 1003.2 - 0.0 - - - - - - -
05/12:30am 20.0 N 4 7 1003.5 - 0.0 - - - - - - -
05/12:00am 20.1 N 8 10 1003.8 - 0.0 - - - - - - -
 
Date/Time
EDT
Temp
°C
Wind Pressure Rain since
9am
mm
Weather Cloud Vis
km
Sea
Height
m
Swell
Dir  Spd
kts
Gust
kts
hPa Trend Height
m
Period
s
Dir
04/11:30pm 20.3 N 11 13 1004.2 - 0.0 - - - - - - -
04/11:00pm 20.2 N 9 14 1004.1 - 0.0 - - - - - - -
04/10:30pm 20.1 NNE 8 11 1004.8 - 0.0 - - - - - - -
04/10:00pm 20.1 NNE 4 8 1005.4 - 0.0 - - - - - - -
04/09:30pm 20.1 N 8 12 1005.9 - 0.0 - - - - - - -
04/09:00pm 20.7 NNW 15 19 1006.3 - 0.0 - - - - - - -
04/08:53pm 20.6 N 15 19 1006.2 - 0.0 - - - - - - -
04/08:30pm 20.2 NNE 5 9 1005.9 - 0.0 - - - - - - -
04/08:00pm 20.9 NNW 8 12 1006.2 - 0.0 - - - - - - -
04/07:30pm 22.5 WNW 4 8 1006.5 - 0.0 - - - - - - -
04/07:00pm 24.1 WNW 9 15 1006.1 - 0.0 - - - - - - -
04/06:30pm 25.7 NW 8 15 1005.0 - 0.0 - - - - - - -
04/06:07pm 26.1 NW 8 22 1004.8 - 0.0 - - - - - - -
04/06:00pm 25.7 NW 4 7 1004.5 - 0.0 - - - - - - -
04/05:30pm 27.2 NW 3 5 1004.3 - 0.0 - - - - - - -
04/05:00pm 25.7 NNW 8 10 1004.7 - 0.0 - - - - - - -
04/04:30pm 24.5 NNW 9 13 1005.1 - 0.0 - - - - - - -
04/04:00pm 27.5 NW 5 9 1005.5 - 0.0 - - - - - - -
04/03:30pm 27.5 N 4 5 1005.7 - 0.0 - - - - - - -
04/03:00pm 25.8 NNE 3 4 1006.0 - 0.0 - - - - - - -
04/02:30pm 27.2 ENE 3 4 1006.4 - 0.0 - - - - - - -
04/02:00pm 25.6 E 3 4 1006.8 - 0.0 - - - - - - -
04/01:30pm 24.9 SE 2 3 1007.4 - 0.0 - - - - - - -
04/01:00pm 24.4 SSE 2 3 1008.0 - 0.0 - - - - - - -
04/12:30pm 22.9 SSE 3 5 1008.2 - 0.0 - - - - - - -
04/12:00pm 23.0 SE 2 3 1008.6 - 0.0 - - - - - - -
04/11:30am 22.9 ESE 3 4 1009.1 - 0.0 - - - - - - -
04/11:00am 22.6 E 3 5 1009.5 - 0.0 - - - - - - -
04/10:30am 21.5 ENE 7 8 1009.7 - 0.0 - - - - - - -
04/10:00am 20.4 ENE 7 8 1010.1 - 0.0 - - - - - - -
04/09:30am 20.7 ENE 7 9 1010.6 - 0.0 - - - - - - -
04/09:00am 18.9 NE 9 10 1010.7 - 0.0 - - - - - - -
04/08:30am 16.4 NE 10 12 1010.8 - 0.0 - - - - - - -
04/08:00am 15.8 NE 9 11 1010.6 - 0.0 - - - - - - -
04/07:30am 14.9 NE 9 12 1011.1 - 0.0 - - - - - - -
04/07:00am 14.4 NE 9 11 1011.3 - 0.0 - - - - - - -
04/06:30am 14.1 NE 8 9 1011.3 - 0.0 - - - - - - -
04/06:00am 13.6 NNE 5 8 1011.3 - 0.0 - - - - - - -
04/05:30am 13.7 NE 6 7 1011.5 - 0.0 - - - - - - -
04/05:00am 13.6 NNE 3 5 1011.6 - 0.0 - - - - - - -
04/04:30am 13.5 NNE 3 4 1011.5 - 0.0 - - - - - - -
04/04:00am 13.8 N 2 4 1011.4 - 0.0 - - - - - - -
04/03:30am 13.0 ENE 5 7 1011.5 - 0.0 - - - - - - -
04/03:00am 13.5 ENE 5 7 1011.9 - 0.0 - - - - - - -
04/02:30am 14.0 NNE 3 4 1012.3 - 0.0 - - - - - - -
04/02:00am 13.8 NNW 2 3 1012.6 - 0.0 - - - - - - -
04/01:30am 13.8 NE 2 4 1012.9 - 0.0 - - - - - - -
04/01:00am 13.2 E 4 5 1013.2 - 0.0 - - - - - - -
04/12:30am 13.7 ESE 5 7 1013.7 - 0.0 - - - - - - -
04/12:00am 14.1 ESE 6 9 1014.0 - 0.0 - - - - - - -
 
Date/Time
EDT
Temp
°C
Wind Pressure Rain since
9am
mm
Weather Cloud Vis
km
Sea
Height
m
Swell
Dir  Spd
kts
Gust
kts
hPa Trend Height
m
Period
s
Dir
03/11:30pm 14.3 ESE 8 9 1014.3 - 0.0 - - - - - - -
03/11:00pm 14.5 ESE 9 10 1014.6 - 0.0 - - - - - - -
03/10:30pm 14.5 ESE 12 14 1014.7 - 0.0 - - - - - - -
03/10:00pm 14.9 ESE 17 20 1014.8 - 0.0 - - - - - - -
03/09:30pm 15.0 ESE 16 20 1014.6 - 0.0 - - - - - - -
03/09:00pm 15.3 ESE 16 20 1014.6 - 0.0 - - - - - - -
03/08:30pm 15.6 ESE 15 19 1014.7 - 0.0 - - - - - - -
03/08:00pm 16.1 ESE 15 18 1014.7 - 0.0 - - - - - - -
03/07:30pm 16.4 SE 12 19 1014.6 - 0.0 - - - - - - -
03/07:00pm 16.7 SE 10 13 1014.6 - 0.0 - - - - - - -
03/06:30pm 17.0 SE 9 12 1014.4 - 0.0 - - - - - - -
03/06:00pm 17.3 SSE 10 13 1014.6 - 0.0 - - - - - - -
03/05:30pm 17.5 SSE 9 12 1014.8 - 0.0 - - - - - - -
03/05:00pm 17.9 SSE 7 10 1015.1 - 0.0 - - - - - - -

Other Formats:

Comma delimited format used in spreadsheet applications
http://www.bom.gov.au/fwo/IDV60701/IDV60701.94892.axf

JavaScript Object Notation format (JSON) in row-major order
http://www.bom.gov.au/fwo/IDV60701/IDV60701.94892.json